American Falls, ID

4:44 PM MST on December 20, 2014 (GMT -0700)
ITD Coldwater ID US | Change Station
CLOSE
Current Station
Personal Weather Station
Location: American Falls, ID
Elevation: 4298 ft
Nearby Weather Stations
Active Advisory: Wind Advisory Active Notice: Record Report, Local Storm Report

Elev 4298 ft 42.61 °N, 113.15 °W | Updated 59 minutes ago

Overcast
Overcast
41 °F
Feels Like 34 °F
N
12
Wind Variable Wind from South
Gusts 15.0 mph

Today
High -- | Low -- °F
--% Chance of Precip.
Yesterday
High -- | Low -- °F
Precip. -- in
7:58 AM 5:00 PM
Waning Crescent, 2% visible
Pressure 30.02 in
Visibility 10.0 miles
Clouds Overcast 2600 ft
Windchill 34 °F
Dew Point 34 °F
Humidity 76%
Rainfall 0.03 in
Snow Depth Not available.
UV 0 out of 12
Pollen .10 out of 12
Air Quality Not available.
Flu Activity Not available.
METAR KPIH 202253Z 19014KT 10SM OVC026 05/01 A3000 RMK AO2 RAB16E31 SLP164 VIS SE 5SM P0000 T00500011

More Conditions Fewer Conditions

Pressure 30.02 in
Visibility 10.0 miles
Clouds Overcast 2600 ft
Windchill 34 °F
Dew Point 34 °F
Humidity 76%
Rainfall 0.03 in
Snow Depth Not available.
UV 0 out of 12
Pollen .10 out of 12
Air Quality Not available.
Flu Activity Not available.
METAR KPIH 202253Z 19014KT 10SM OVC026 05/01 A3000 RMK AO2 RAB16E31 SLP164 VIS SE 5SM P0000 T00500011

More Conditions Fewer Conditions

10-Day Weather Forecast

Almanac

Astronomy

Dec. 20, 2014 Rise Set
Actual Time
Civil Twilight
Nautical Twilight
Astronomical Twilight
Moon
Length of Visible Light
Length of Day
Tomorrow will be .
, % of the Moon is Illuminated

Today's Extremes

State Highs State Lows

Community

WunderPhotos

Upload Photos

1,779,319 photos uploaded!

WunderBlogs® & News

Nearby

Air Quality

  Air Quality AQ Index Pollutant
Not available.

Snow Depth

Station Depth Elevation

Earthquake Activity

City Distance Mag. Time & Date
Minimum magnitude displayed is 2.5.

Coastal Water Temperatures

Place Temperature

Nearby Weather Stations